ADDS METAR Data INFO
IDs: Format: Raw Decoded Include TAF

Data at: 1027 UTC 19 Nov 2017

METAR for:KSDF (Louisville Intl, KY, US)
Text:KSDF 190956Z 31008KT 10SM OVC032 06/M01 A2996 RMK AO2 SLP143 T00561011
Temperature: 5.6°C ( 42°F)
Dewpoint: -1.1°C ( 30°F) [RH = 62%]
Pressure (altimeter):29.96 inches Hg (1014.6 mb) [Sea level pressure: 1014.3 mb]
Winds:from the NW (310 degrees) at 9 MPH (8 knots; 4.1 m/s)
Visibility:10 or more sm (16+ km)
Ceiling:3200 feet AGL
Clouds: overcast cloud deck at 3200 feet AGL